Blanc Sablon, Canada
Current Conditions -  °F | °C
As of 8:00 AM on Monday 24 Nov 2014 (Local Time) from CYBX Reporting Station
Clear Clear  
Wind Chill:   Ceiling: Unl
Heat Index: 16°   Visibility: 15mi
Dew Point:   Wind: 7mph
Humidity: 68%   Direction: 310°NW
Pressure: 30.21"   Gusts: NA
Location:  51.43°N, 57.14°W
Report Text: CYBX 241200Z 31006KT 15SM SKC M09/M14 A3021 RMK SLP234
Loading
Personal Weather Stations






























Interactive Weather Map New forecast layout! Learn more

10-Day Weather Forecast

Advertisements
Track Severe Weather on mobile